createdAt,value
2022-11-13T00:01:23.501Z,101555.47
2022-11-13T00:04:15.363Z,101548.47
2022-11-13T00:07:02.075Z,101544.06
2022-11-13T00:09:48.505Z,101534.66
2022-11-13T00:12:37.106Z,101540.66
2022-11-13T00:15:23.492Z,101545.94
2022-11-13T00:18:10.593Z,101538.00
2022-11-13T00:20:58.449Z,101547.12
2022-11-13T00:23:52.621Z,101550.66
2022-11-13T00:26:39.934Z,101551.38
2022-11-13T00:29:26.110Z,101547.84
2022-11-13T00:32:12.079Z,101559.56
2022-11-13T00:34:58.148Z,101551.56
2022-11-13T00:37:44.326Z,101554.47
2022-11-13T00:40:30.381Z,101555.28
2022-11-13T00:43:16.478Z,101552.00
2022-11-13T00:46:02.453Z,101560.62
2022-11-13T00:48:44.381Z,101552.63
2022-11-13T00:52:09.547Z,101546.56
2022-11-13T00:54:51.466Z,101553.66
2022-11-13T01:06:01.650Z,101539.81
2022-11-13T01:08:48.286Z,101545.22
2022-11-13T01:11:34.506Z,101545.09
2022-11-13T01:14:20.666Z,101538.09
2022-11-13T01:17:07.497Z,101538.22
2022-11-13T01:20:36.472Z,101540.03
2022-11-13T01:23:22.422Z,101546.16
2022-11-13T01:30:24.539Z,101538.31
2022-11-13T01:33:09.443Z,101524.19
2022-11-13T01:35:51.378Z,101519.06
2022-11-13T01:43:32.602Z,101523.47
2022-11-13T01:46:35.818Z,101521.72
2022-11-13T01:49:29.347Z,101521.75
2022-11-13T01:56:57.771Z,101525.28
2022-11-13T01:59:48.428Z,101502.53
2022-11-13T02:02:34.377Z,101508.72
2022-11-13T02:05:21.006Z,101498.06
2022-11-13T02:08:06.869Z,101497.19
2022-11-13T02:10:52.925Z,101492.78
2022-11-13T02:13:39.017Z,101490.22
2022-11-13T02:16:24.846Z,101495.50
2022-11-13T02:19:17.792Z,101490.22
2022-11-13T02:22:20.424Z,101491.19
2022-11-13T02:25:07.644Z,101491.09
2022-11-13T02:27:53.695Z,101490.25
2022-11-13T02:30:39.473Z,101488.47
2022-11-13T02:33:30.952Z,101489.41
2022-11-13T02:36:16.929Z,101479.75
2022-11-13T02:39:06.828Z,101476.16
2022-11-13T02:41:52.598Z,101482.34
2022-11-13T02:44:38.731Z,101476.09
2022-11-13T02:47:24.745Z,101479.75
2022-11-13T02:50:11.703Z,101472.59
2022-11-13T02:52:57.832Z,101476.22
2022-11-13T02:55:43.850Z,101469.28
2022-11-13T02:58:30.458Z,101481.47
2022-11-13T03:01:17.057Z,101477.06
2022-11-13T03:04:02.849Z,101486.72
2022-11-13T03:06:48.993Z,101485.63
2022-11-13T03:09:35.303Z,101490.13
2022-11-13T03:16:36.625Z,101494.59
2022-11-13T03:19:27.292Z,101486.75
2022-11-13T03:22:13.310Z,101490.25
2022-11-13T03:24:55.377Z,101484.06
2022-11-13T03:27:37.404Z,101490.19
2022-11-13T03:30:19.518Z,101485.75
2022-11-13T03:33:01.410Z,101485.78
2022-11-13T03:35:46.949Z,101490.22
2022-11-13T03:38:25.814Z,101484.19
2022-11-13T03:41:14.909Z,101489.31
2022-11-13T03:43:57.374Z,101487.50
2022-11-13T03:46:39.364Z,101484.03
2022-11-13T03:49:21.365Z,101484.06
2022-11-13T03:52:10.876Z,101490.19
2022-11-13T03:54:58.122Z,101485.88
2022-11-13T03:57:44.162Z,101481.50
2022-11-13T04:00:30.385Z,101482.34
2022-11-13T04:03:16.235Z,101475.47
2022-11-13T04:06:02.407Z,101485.06
2022-11-13T04:08:48.426Z,101480.66
2022-11-13T04:11:34.469Z,101480.72
2022-11-13T04:15:05.649Z,101485.97
2022-11-13T04:17:51.503Z,101479.06
2022-11-13T04:20:37.510Z,101483.41
2022-11-13T04:23:23.476Z,101481.66
2022-11-13T04:26:09.780Z,101476.41
2022-11-13T04:28:55.814Z,101472.97
2022-11-13T04:31:41.874Z,101479.09
2022-11-13T04:34:28.114Z,101489.59
2022-11-13T04:37:14.378Z,101486.12
2022-11-13T04:40:00.302Z,101486.09
2022-11-13T04:42:49.167Z,101483.47
2022-11-13T04:45:35.358Z,101477.34
2022-11-13T04:48:21.237Z,101482.66
2022-11-13T04:51:07.404Z,101478.16
2022-11-13T04:53:53.514Z,101475.31
2022-11-13T04:56:39.750Z,101470.41
2022-11-13T04:59:25.851Z,101474.63
2022-11-13T05:02:11.911Z,101470.34
2022-11-13T05:05:03.376Z,101477.34
2022-11-13T05:07:50.911Z,101475.62
2022-11-13T05:10:37.143Z,101473.78
2022-11-13T05:13:23.022Z,101479.09
2022-11-13T05:16:11.369Z,101476.41
2022-11-13T05:23:18.915Z,101478.16
2022-11-13T05:26:10.674Z,101468.28
2022-11-13T05:28:58.534Z,101472.00
2022-11-13T05:31:44.628Z,101475.50
2022-11-13T05:34:30.763Z,101475.56
2022-11-13T05:37:17.335Z,101479.78
2022-11-13T05:40:04.083Z,101469.97
2022-11-13T05:42:50.124Z,101472.88
2022-11-13T05:45:36.414Z,101472.81
2022-11-13T05:48:22.402Z,101471.09
2022-11-13T05:51:14.700Z,101459.50
2022-11-13T05:54:01.402Z,101464.94
2022-11-13T05:56:47.560Z,101465.84
2022-11-13T05:59:33.550Z,101464.91
2022-11-13T06:02:19.963Z,101454.28
2022-11-13T06:05:06.548Z,101449.12
2022-11-13T06:07:52.494Z,101454.34
2022-11-13T06:10:39.284Z,101459.66
2022-11-13T06:13:25.454Z,101456.94
2022-11-13T06:16:16.161Z,101459.63
2022-11-13T06:19:04.952Z,101464.88
2022-11-13T06:21:51.606Z,101457.75
2022-11-13T06:24:37.742Z,101462.97
2022-11-13T06:27:40.063Z,101472.62
2022-11-13T06:30:26.211Z,101456.47
2022-11-13T06:33:12.402Z,101462.03
2022-11-13T06:35:58.410Z,101462.75
2022-11-13T06:38:45.025Z,101467.03
2022-11-13T06:41:31.492Z,101466.38
2022-11-13T06:44:17.311Z,101469.84
2022-11-13T06:47:03.697Z,101468.03
2022-11-13T06:49:49.734Z,101463.72
2022-11-13T06:52:35.881Z,101471.34
2022-11-13T06:55:22.114Z,101471.34
2022-11-13T06:58:08.570Z,101476.75
2022-11-13T07:00:55.396Z,101480.22
2022-11-13T07:03:37.859Z,101481.16
2022-11-13T07:06:22.470Z,101499.09
2022-11-13T07:09:08.498Z,101492.97
2022-11-13T07:11:54.569Z,101497.34
2022-11-13T07:14:40.772Z,101496.56
2022-11-13T07:17:28.747Z,101498.28
2022-11-13T07:20:16.206Z,101489.25
2022-11-13T07:23:03.206Z,101501.44
2022-11-13T07:25:49.792Z,101492.31
2022-11-13T07:28:35.489Z,101489.69
2022-11-13T07:31:22.100Z,101490.50
2022-11-13T07:34:07.995Z,101488.00
2022-11-13T07:36:54.026Z,101491.78
2022-11-13T07:39:40.128Z,101490.91
2022-11-13T07:42:26.359Z,101491.88
2022-11-13T07:45:12.413Z,101486.94
2022-11-13T07:48:02.620Z,101486.97
2022-11-13T07:50:48.842Z,101501.28
2022-11-13T07:53:36.022Z,101489.53
2022-11-13T07:56:23.419Z,101483.12
2022-11-13T07:59:09.603Z,101500.84
2022-11-13T08:01:51.633Z,101489.53
2022-11-13T08:04:38.652Z,101477.03
2022-11-13T08:07:27.293Z,101482.00
2022-11-13T08:10:16.947Z,101478.34
2022-11-13T08:13:10.563Z,101472.47
2022-11-13T08:15:59.415Z,101488.38
2022-11-13T08:18:45.366Z,101483.00
2022-11-13T08:21:31.525Z,101482.81
2022-11-13T08:24:17.472Z,101480.63
2022-11-13T08:27:08.782Z,101477.66
2022-11-13T08:29:55.077Z,101481.59
2022-11-13T08:32:41.245Z,101489.62
2022-11-13T08:35:29.569Z,101471.03
2022-11-13T08:38:16.479Z,101483.84
2022-11-13T08:41:08.988Z,101477.03
2022-11-13T08:44:12.566Z,101463.72
2022-11-13T08:46:58.789Z,101466.50
2022-11-13T08:49:45.007Z,101470.34
2022-11-13T08:52:31.117Z,101466.69
2022-11-13T08:55:17.574Z,101467.84
2022-11-13T08:58:07.120Z,101463.28
2022-11-13T09:00:53.317Z,101453.97
2022-11-13T09:03:40.368Z,101461.06
2022-11-13T09:06:26.410Z,101475.16
2022-11-13T09:09:12.463Z,101466.88
2022-11-13T09:11:58.451Z,101470.38
2022-11-13T09:14:44.596Z,101467.53
2022-11-13T09:17:31.485Z,101474.31
2022-11-13T09:20:22.481Z,101472.97
2022-11-13T09:23:09.646Z,101462.00
2022-11-13T09:25:56.565Z,101459.91
2022-11-13T09:28:43.396Z,101464.50
2022-11-13T09:31:30.148Z,101465.88
2022-11-13T09:34:16.356Z,101460.41
2022-11-13T09:37:02.627Z,101462.19
2022-11-13T09:39:48.792Z,101458.53
2022-11-13T09:42:36.950Z,101451.28
2022-11-13T09:45:23.386Z,101448.84
2022-11-13T09:48:34.387Z,101441.31
2022-11-13T09:51:25.062Z,101437.81
2022-11-13T09:54:14.348Z,101435.47
2022-11-13T09:57:37.289Z,101430.28
2022-11-13T10:00:21.393Z,101422.22
2022-11-13T10:03:54.107Z,101424.50
2022-11-13T10:06:40.599Z,101420.16
2022-11-13T10:09:33.643Z,101417.53
2022-11-13T10:12:20.855Z,101402.97
2022-11-13T10:15:10.395Z,101408.59
2022-11-13T10:18:04.000Z,101404.00
2022-11-13T10:20:54.266Z,101400.44
2022-11-13T10:23:40.146Z,101393.22
2022-11-13T10:26:28.880Z,101383.50
2022-11-13T10:29:19.813Z,101381.50
2022-11-13T10:32:26.974Z,101381.69
2022-11-13T10:35:35.237Z,101372.56
2022-11-13T10:38:30.519Z,101380.00
2022-11-13T10:41:33.245Z,101370.72
2022-11-13T10:44:27.223Z,101360.03
2022-11-13T10:47:36.145Z,101346.91
2022-11-13T10:50:22.366Z,101349.66
2022-11-13T10:53:17.590Z,101353.59
2022-11-13T10:56:13.340Z,101343.84
2022-11-13T10:59:13.907Z,101336.62
2022-11-13T11:02:11.760Z,101339.25
2022-11-13T11:05:16.556Z,101334.44
2022-11-13T11:08:09.189Z,101327.38
2022-11-13T11:11:35.787Z,101322.81
2022-11-13T11:14:42.637Z,101316.38
2022-11-13T11:17:44.088Z,101317.34
2022-11-13T11:21:01.451Z,101309.47
2022-11-13T11:24:03.246Z,101307.91
2022-11-13T11:27:03.973Z,101309.34
2022-11-13T11:30:07.109Z,101312.53
2022-11-13T11:33:01.226Z,101307.06
2022-11-13T11:35:56.515Z,101299.53
2022-11-13T11:38:53.307Z,101293.75
2022-11-13T11:41:51.622Z,101293.84
2022-11-13T11:45:10.884Z,101288.75
2022-11-13T11:47:59.055Z,101297.28
2022-11-13T11:50:57.040Z,101291.75
2022-11-13T11:54:21.922Z,101277.78
2022-11-13T11:57:33.564Z,101266.12
2022-11-13T12:00:20.380Z,101264.22
2022-11-13T12:03:35.125Z,101267.59
2022-11-13T12:06:49.663Z,101263.94
2022-11-13T12:09:51.473Z,101255.78
2022-11-13T12:12:55.338Z,101244.75
2022-11-13T12:15:51.010Z,101241.09
2022-11-13T12:18:49.454Z,101236.63
2022-11-13T12:21:52.702Z,101224.09
2022-11-13T12:25:00.654Z,101222.44
2022-11-13T12:28:08.115Z,101214.72
2022-11-13T12:31:05.122Z,101216.00
2022-11-13T12:34:01.893Z,101213.41
2022-11-13T12:36:48.402Z,101202.97
2022-11-13T12:40:00.649Z,101204.38
2022-11-13T12:43:08.990Z,101200.44
2022-11-13T12:45:58.379Z,101191.94
2022-11-13T12:48:48.148Z,101197.97
2022-11-13T12:51:54.540Z,101196.84
2022-11-13T12:54:41.271Z,101195.16
2022-11-13T12:57:30.674Z,101202.81
2022-11-13T13:00:28.902Z,101196.09
2022-11-13T13:03:42.987Z,101200.69
2022-11-13T13:07:02.313Z,101200.88
2022-11-13T13:09:51.068Z,101188.16
2022-11-13T13:12:58.556Z,101193.81
2022-11-13T13:15:43.960Z,101183.00
2022-11-13T13:18:42.735Z,101185.87
2022-11-13T13:21:41.049Z,101181.75
2022-11-13T13:24:36.361Z,101172.00
2022-11-13T13:27:28.005Z,101178.09
2022-11-13T13:30:44.994Z,101182.00
2022-11-13T13:33:44.715Z,101191.12
2022-11-13T13:36:39.524Z,101174.09
2022-11-13T13:39:33.817Z,101182.44
2022-11-13T13:42:54.072Z,101178.78
2022-11-13T13:46:18.267Z,101166.00
2022-11-13T13:49:09.437Z,101168.78
2022-11-13T13:51:57.309Z,101163.38
2022-11-13T13:54:45.402Z,101161.81
2022-11-13T13:57:31.343Z,101156.47
2022-11-13T14:00:19.190Z,101159.09
2022-11-13T14:03:16.997Z,101170.78
2022-11-13T14:06:25.478Z,101163.25
2022-11-13T14:09:18.247Z,101170.72
2022-11-13T14:12:18.394Z,101166.41
2022-11-13T14:15:25.707Z,101164.84
2022-11-13T14:18:22.574Z,101174.06
2022-11-13T14:21:26.760Z,101167.88
2022-11-13T14:24:34.725Z,101163.69
2022-11-13T14:27:24.699Z,101158.94
2022-11-13T14:30:22.161Z,101151.81
2022-11-13T14:33:10.702Z,101164.44
2022-11-13T14:35:57.825Z,101162.16
2022-11-13T14:38:51.774Z,101162.63
2022-11-13T14:41:46.299Z,101161.25
2022-11-13T14:44:34.377Z,101162.75
2022-11-13T14:47:26.594Z,101159.94
2022-11-13T14:50:23.101Z,101161.34
2022-11-13T14:53:10.502Z,101158.69
2022-11-13T14:55:59.222Z,101155.34
2022-11-13T14:58:49.238Z,101161.84
2022-11-13T15:01:35.579Z,101157.16
2022-11-13T15:04:21.877Z,101144.81
2022-11-13T15:07:32.243Z,101143.78
2022-11-13T15:10:20.026Z,101148.44
2022-11-13T15:13:17.639Z,101142.59
2022-11-13T15:16:04.217Z,101146.44
2022-11-13T15:19:06.318Z,101144.19
2022-11-13T15:22:25.118Z,101139.25
2022-11-13T15:24:58.577Z,101142.91
2022-11-13T15:27:44.752Z,101138.50
2022-11-13T15:30:30.972Z,101144.41
2022-11-13T15:33:17.355Z,101135.53
2022-11-13T15:36:03.841Z,101137.81
2022-11-13T15:38:49.856Z,101143.41
2022-11-13T15:41:36.458Z,101137.47
2022-11-13T15:44:22.539Z,101135.53
2022-11-13T15:47:31.049Z,101133.03
2022-11-13T15:50:17.423Z,101134.59
2022-11-13T15:53:05.407Z,101135.63
2022-11-13T15:58:48.887Z,101142.63
2022-11-13T16:01:35.513Z,101142.09
2022-11-13T16:07:23.386Z,101144.59
2022-11-13T16:10:10.582Z,101147.53
2022-11-13T16:12:56.776Z,101140.50
2022-11-13T16:15:43.034Z,101138.75
2022-11-13T16:18:31.435Z,101132.09
2022-11-13T16:21:18.850Z,101126.06
2022-11-13T16:24:05.393Z,101125.22
2022-11-13T16:26:55.799Z,101125.47
2022-11-13T16:29:41.711Z,101131.25
2022-11-13T16:32:28.231Z,101131.81
2022-11-13T16:35:19.217Z,101132.37
2022-11-13T16:38:12.901Z,101143.00
2022-11-13T16:40:58.931Z,101134.59
2022-11-13T16:43:45.308Z,101127.81
2022-11-13T16:46:36.379Z,101130.91
2022-11-13T16:49:22.323Z,101127.66
2022-11-13T16:52:10.580Z,101140.78
2022-11-13T16:54:56.666Z,101134.69
2022-11-13T16:57:43.293Z,101124.28
2022-11-13T17:00:29.799Z,101126.91
2022-11-13T17:03:15.648Z,101126.75
2022-11-13T17:06:01.955Z,101133.72
2022-11-13T17:08:52.313Z,101136.25
2022-11-13T17:11:38.572Z,101143.66
2022-11-13T17:14:24.692Z,101135.28
2022-11-13T17:17:13.435Z,101128.97
2022-11-13T17:19:59.595Z,101128.09
2022-11-13T17:22:48.609Z,101121.94
2022-11-13T17:25:34.674Z,101117.72
2022-11-13T17:28:21.214Z,101121.87
2022-11-13T17:31:09.741Z,101115.66
2022-11-13T17:33:55.952Z,101107.19
2022-11-13T17:36:43.430Z,101107.06
2022-11-13T17:39:29.470Z,101109.81
2022-11-13T17:42:15.690Z,101107.97
2022-11-13T17:45:02.227Z,101102.44
2022-11-13T17:47:50.042Z,101100.78
2022-11-13T17:50:36.401Z,101102.88
2022-11-13T17:53:22.595Z,101098.59
2022-11-13T17:56:11.777Z,101108.88
2022-11-13T17:58:57.841Z,101102.50
2022-11-13T18:01:44.196Z,101103.31
2022-11-13T18:04:31.844Z,101115.34
2022-11-13T18:07:17.952Z,101113.12
2022-11-13T18:10:04.455Z,101118.75
2022-11-13T18:12:50.295Z,101123.28
2022-11-13T18:15:39.036Z,101123.50
2022-11-13T18:18:25.332Z,101132.78
2022-11-13T18:21:24.899Z,101130.75
2022-11-13T18:24:17.332Z,101137.31
2022-11-13T18:27:06.108Z,101133.25
2022-11-13T18:29:52.615Z,101127.16
2022-11-13T18:32:39.074Z,101125.91
2022-11-13T18:35:29.849Z,101124.19
2022-11-13T18:38:15.973Z,101124.84
2022-11-13T18:41:09.269Z,101122.72
2022-11-13T18:43:51.895Z,101126.66
2022-11-13T18:46:34.449Z,101124.22
2022-11-13T18:49:16.369Z,101120.59
2022-11-13T18:51:58.279Z,101124.06
2022-11-13T18:54:40.341Z,101125.22
2022-11-13T18:57:22.350Z,101131.06
2022-11-13T19:00:05.705Z,101133.16
2022-11-13T19:02:50.145Z,101124.97
2022-11-13T19:05:32.256Z,101132.28
2022-11-13T19:08:14.634Z,101135.94
2022-11-13T19:11:03.718Z,101131.91
2022-11-13T19:13:47.199Z,101133.84
2022-11-13T19:16:33.885Z,101116.31
2022-11-13T19:19:18.916Z,101128.00
2022-11-13T19:22:17.300Z,101134.25
2022-11-13T19:24:59.336Z,101136.75
2022-11-13T19:27:41.275Z,101137.41
2022-11-13T19:30:23.318Z,101141.87
2022-11-13T19:33:05.315Z,101125.75
2022-11-13T19:35:47.519Z,101130.44
2022-11-13T19:38:55.168Z,101130.12
2022-11-13T19:41:42.139Z,101134.53
2022-11-13T19:44:38.883Z,101138.22
2022-11-13T19:47:27.276Z,101136.78
2022-11-13T19:50:33.832Z,101141.53
2022-11-13T19:53:22.420Z,101133.31
2022-11-13T19:56:06.913Z,101135.94
2022-11-13T19:58:53.062Z,101136.38
2022-11-13T20:01:40.045Z,101125.69
2022-11-13T20:04:23.351Z,101135.47
2022-11-13T20:07:29.907Z,101138.09
2022-11-13T20:10:26.399Z,101133.53
2022-11-13T20:13:12.697Z,101127.63
2022-11-13T20:15:58.831Z,101143.75
2022-11-13T20:18:45.025Z,101131.38
2022-11-13T20:21:40.414Z,101135.09
2022-11-13T20:24:26.559Z,101134.44
2022-11-13T20:27:12.581Z,101139.59
2022-11-13T20:29:59.052Z,101129.97
2022-11-13T20:32:45.405Z,101136.59
2022-11-13T20:38:34.995Z,101135.63
2022-11-13T20:41:21.901Z,101131.25
2022-11-13T20:44:08.099Z,101129.47
2022-11-13T20:47:15.926Z,101131.47
2022-11-13T20:50:07.697Z,101124.28
2022-11-13T20:52:53.727Z,101129.72
2022-11-13T20:55:39.906Z,101133.44
2022-11-13T20:58:26.075Z,101136.97
2022-11-13T21:01:23.434Z,101131.56
2022-11-13T21:04:09.459Z,101129.72
2022-11-13T21:06:55.680Z,101119.94
2022-11-13T21:14:03.315Z,101124.53
2022-11-13T21:16:49.255Z,101124.22
2022-11-13T21:19:35.899Z,101123.81
2022-11-13T21:26:45.082Z,101130.41
2022-11-13T21:29:31.263Z,101132.50
2022-11-13T21:32:20.468Z,101135.06
2022-11-13T21:35:02.248Z,101132.25
2022-11-13T21:37:44.310Z,101132.28
2022-11-13T21:40:37.274Z,101127.88
2022-11-13T21:43:25.054Z,101130.28
2022-11-13T21:46:07.443Z,101130.12
2022-11-13T21:49:19.873Z,101130.09
2022-11-13T21:52:06.361Z,101124.50
2022-11-13T21:54:51.300Z,101119.28
2022-11-13T21:57:37.978Z,101125.25
2022-11-13T22:00:24.101Z,101124.38
2022-11-13T22:03:10.290Z,101120.25
2022-11-13T22:06:16.493Z,101118.94
2022-11-13T22:09:05.283Z,101115.41
2022-11-13T22:11:51.724Z,101124.00
2022-11-13T22:14:37.829Z,101110.88
2022-11-13T22:17:23.920Z,101123.22
2022-11-13T22:20:10.158Z,101114.28
2022-11-13T22:22:56.392Z,101122.75
2022-11-13T22:25:42.333Z,101121.34
2022-11-13T22:28:29.059Z,101117.66
2022-11-13T22:31:23.624Z,101112.06
2022-11-13T22:34:09.853Z,101115.03
2022-11-13T22:36:55.962Z,101105.59
2022-11-13T22:39:42.035Z,101101.78
2022-11-13T22:42:28.076Z,101102.59
2022-11-13T22:45:23.426Z,101103.53
2022-11-13T22:48:11.092Z,101097.03
2022-11-13T22:50:57.353Z,101085.91
2022-11-13T22:53:47.661Z,101083.22
2022-11-13T22:56:34.948Z,101080.50
2022-11-13T22:59:21.379Z,101073.84
2022-11-13T23:02:07.874Z,101066.22
2022-11-13T23:04:54.010Z,101071.41
2022-11-13T23:07:40.369Z,101061.81
2022-11-13T23:10:30.250Z,101061.41
2022-11-13T23:13:17.793Z,101051.47
2022-11-13T23:16:03.926Z,101058.41
2022-11-13T23:18:46.112Z,101057.56
2022-11-13T23:21:45.798Z,101065.84
2022-11-13T23:24:43.664Z,101065.03
2022-11-13T23:27:30.685Z,101058.56
2022-11-13T23:30:16.363Z,101053.87
2022-11-13T23:33:02.452Z,101054.28
2022-11-13T23:35:53.745Z,101055.41
2022-11-13T23:38:41.301Z,101057.31
2022-11-13T23:41:27.579Z,101061.81
2022-11-13T23:44:13.764Z,101066.25
2022-11-13T23:47:07.994Z,101071.34
2022-11-13T23:49:54.130Z,101058.13
2022-11-13T23:52:40.158Z,101060.84
2022-11-13T23:55:26.399Z,101062.25
2022-11-13T23:58:14.692Z,101062.44
